Time;durP1;ratioP1;P1;durP2;ratioP2;P2;SDS_P1;SDS_P2;PMS_P1;PMS_P2;Temp;Humidity;BMP_temperature;BMP_pressure;BME280_temperature;BME280_humidity;BME280_pressure;Samples;Min_cycle;Max_cycle;Signal;HPM_P1;HPM_P2
2023/10/21 00:00:29;;;;;;;4.57;2.15;;;10.10;99.90;;;;;;5061368;28;20040;-75
2023/10/21 00:02:55;;;;;;;5.90;2.78;;;10.00;99.90;;;;;;5047755;28;20032;-75
2023/10/21 00:05:20;;;;;;;3.92;1.88;;;10.00;99.90;;;;;;5064492;28;20034;-75
2023/10/21 00:07:46;;;;;;;5.13;1.88;;;10.00;99.90;;;;;;5062037;28;20032;-75
2023/10/21 00:10:12;;;;;;;7.40;2.50;;;10.00;99.90;;;;;;5047514;28;20123;-75
2023/10/21 00:12:37;;;;;;;4.03;1.60;;;10.00;99.90;;;;;;5063000;28;20044;-75
2023/10/21 00:15:07;;;;;;;5.50;2.70;;;10.00;99.90;;;;;;5063035;28;20045;-75
2023/10/21 00:17:33;;;;;;;4.85;2.28;;;9.90;99.90;;;;;;5056721;28;20051;-75
2023/10/21 00:20:00;;;;;;;4.93;2.15;;;9.90;99.90;;;;;;5047161;28;20070;-75
2023/10/21 00:22:26;;;;;;;5.93;2.17;;;9.80;99.90;;;;;;5061995;28;20045;-75
2023/10/21 00:24:52;;;;;;;7.88;3.03;;;9.80;99.90;;;;;;5058728;28;20036;-75
2023/10/21 00:27:17;;;;;;;7.60;2.90;;;9.80;99.90;;;;;;5061526;28;20079;-75
2023/10/21 00:29:43;;;;;;;6.00;2.95;;;9.80;99.90;;;;;;5062188;28;20395;-75
2023/10/21 00:32:09;;;;;;;3.50;1.88;;;9.80;99.90;;;;;;5063814;28;20048;-75
2023/10/21 00:34:38;;;;;;;6.43;2.70;;;9.70;99.90;;;;;;5060692;28;20036;-75
2023/10/21 00:37:04;;;;;;;6.95;3.17;;;9.70;99.90;;;;;;5045248;28;20028;-75
2023/10/21 00:39:34;;;;;;;4.80;2.50;;;9.70;99.90;;;;;;5061710;28;20042;-75
2023/10/21 00:42:01;;;;;;;6.85;2.70;;;9.70;99.90;;;;;;5058082;28;20131;-75
2023/10/21 00:44:26;;;;;;;6.75;2.45;;;9.70;99.90;;;;;;5085742;28;20073;-75
2023/10/21 00:46:53;;;;;;;7.38;2.75;;;9.70;99.90;;;;;;5067260;28;20445;-75
2023/10/21 00:49:19;;;;;;;5.75;2.85;;;9.70;99.90;;;;;;5069260;28;20042;-75
2023/10/21 00:51:46;;;;;;;6.03;2.67;;;9.70;99.90;;;;;;5069246;28;20036;-75
2023/10/21 00:54:12;;;;;;;6.35;2.53;;;9.70;99.90;;;;;;5059371;28;20266;-75
2023/10/21 00:56:38;;;;;;;6.03;2.45;;;9.70;99.90;;;;;;5062877;28;20494;-75
2023/10/21 00:59:04;;;;;;;5.25;2.63;;;9.70;99.90;;;;;;5062053;28;20047;-75
2023/10/21 01:01:29;;;;;;;6.07;2.08;;;9.70;99.90;;;;;;5060304;28;20036;-75
2023/10/21 01:03:55;;;;;;;4.28;2.20;;;9.70;99.90;;;;;;5061561;28;20036;-75
2023/10/21 01:06:21;;;;;;;8.10;3.03;;;9.70;99.90;;;;;;5079757;28;20033;-75
2023/10/21 01:08:46;;;;;;;5.38;2.70;;;9.70;99.90;;;;;;5060762;28;20040;-75
2023/10/21 01:11:12;;;;;;;6.55;2.38;;;9.70;99.90;;;;;;5094591;28;20044;-75
2023/10/21 01:13:38;;;;;;;6.85;2.50;;;9.70;99.90;;;;;;5062458;28;20052;-75
2023/10/21 01:16:05;;;;;;;5.00;1.38;;;9.60;99.90;;;;;;5061815;28;20063;-75
2023/10/21 01:18:33;;;;;;;8.27;2.50;;;9.60;99.90;;;;;;5061314;28;20062;-75
2023/10/21 01:21:02;;;;;;;9.43;2.90;;;9.60;99.90;;;;;;5061316;28;20044;-75
2023/10/21 01:23:30;;;;;;;3.60;1.77;;;9.60;99.90;;;;;;5060755;28;20040;-75
2023/10/21 01:25:55;;;;;;;4.35;2.20;;;9.60;99.90;;;;;;5063644;28;20037;-75
2023/10/21 01:28:21;;;;;;;3.83;2.05;;;9.60;99.90;;;;;;5074495;28;20028;-75
2023/10/21 01:30:47;;;;;;;5.20;2.25;;;9.50;99.90;;;;;;5060775;28;20036;-75
2023/10/21 01:33:13;;;;;;;6.63;2.42;;;9.60;99.90;;;;;;5060556;28;20041;-75
2023/10/21 01:35:39;;;;;;;5.65;2.67;;;9.50;99.90;;;;;;5059854;28;20586;-75
2023/10/21 01:38:04;;;;;;;6.13;2.88;;;9.50;99.90;;;;;;5058298;28;20743;-75
2023/10/21 01:40:30;;;;;;;6.22;2.35;;;9.50;99.90;;;;;;5061094;28;20033;-75
2023/10/21 01:42:56;;;;;;;6.03;2.45;;;9.50;99.90;;;;;;5079204;28;20037;-75
2023/10/21 01:45:23;;;;;;;4.45;2.50;;;9.60;99.90;;;;;;5061929;28;20090;-75
2023/10/21 01:47:49;;;;;;;5.22;2.03;;;9.60;99.90;;;;;;5040497;28;20040;-75
2023/10/21 01:50:14;;;;;;;6.88;2.40;;;9.60;99.90;;;;;;5068447;28;20036;-75
2023/10/21 01:52:40;;;;;;;3.92;1.83;;;9.60;99.90;;;;;;5066760;28;20052;-75
2023/10/21 01:55:07;;;;;;;6.90;2.85;;;9.60;99.90;;;;;;5062390;28;20060;-74
2023/10/21 01:57:33;;;;;;;7.20;2.45;;;9.60;99.90;;;;;;5059824;28;20433;-75
2023/10/21 02:00:10;;;;;;;4.60;2.10;;;9.60;99.90;;;;;;5045703;28;20089;-75
2023/10/21 02:02:36;;;;;;;3.55;1.58;;;9.60;99.90;;;;;;5060481;28;20043;-75
2023/10/21 02:05:04;;;;;;;7.20;2.95;;;9.60;99.90;;;;;;5059523;28;20028;-75
2023/10/21 02:07:31;;;;;;;8.38;2.78;;;9.60;99.90;;;;;;5058446;28;20494;-75
2023/10/21 02:09:57;;;;;;;7.97;2.80;;;9.60;99.90;;;;;;5058536;28;20029;-75
2023/10/21 02:12:22;;;;;;;4.68;2.42;;;9.60;99.90;;;;;;5042679;28;20037;-75
2023/10/21 02:14:48;;;;;;;5.30;2.20;;;9.60;99.90;;;;;;5088041;27;20040;-75
2023/10/21 02:17:13;;;;;;;4.25;2.25;;;9.60;99.90;;;;;;5061400;28;20098;-75
2023/10/21 02:19:39;;;;;;;13.68;3.67;;;9.60;99.90;;;;;;5045206;28;20045;-75
2023/10/21 02:22:05;;;;;;;5.70;2.83;;;9.60;99.90;;;;;;5059926;28;20043;-75
2023/10/21 02:24:35;;;;;;;6.72;2.63;;;9.60;99.90;;;;;;5092723;28;20044;-75
2023/10/21 02:27:01;;;;;;;6.00;2.00;;;9.60;99.90;;;;;;5062374;28;20040;-75
2023/10/21 02:29:26;;;;;;;6.00;2.58;;;9.60;99.90;;;;;;5095243;28;20040;-75
2023/10/21 02:31:52;;;;;;;6.90;2.63;;;9.60;99.90;;;;;;5045669;28;20041;-75
2023/10/21 02:34:19;;;;;;;6.03;2.78;;;9.60;99.90;;;;;;5057310;28;20037;-75
2023/10/21 02:36:45;;;;;;;5.55;2.10;;;9.60;99.90;;;;;;5061258;28;20071;-75
2023/10/21 02:39:11;;;;;;;5.60;2.53;;;9.60;99.90;;;;;;5061191;28;20041;-75
2023/10/21 02:41:37;;;;;;;4.28;1.98;;;9.60;99.90;;;;;;5059070;28;20044;-75
2023/10/21 02:44:03;;;;;;;6.72;2.63;;;9.60;99.90;;;;;;5061468;28;20149;-75
2023/10/21 02:46:29;;;;;;;4.05;1.95;;;9.60;99.90;;;;;;5062241;28;20111;-75
2023/10/21 02:48:54;;;;;;;5.20;2.72;;;9.60;99.90;;;;;;5044328;28;20476;-75
2023/10/21 02:51:20;;;;;;;4.95;1.77;;;9.60;99.90;;;;;;5059995;28;20063;-75
2023/10/21 02:53:45;;;;;;;4.75;2.47;;;9.60;99.90;;;;;;5044800;28;20040;-75
2023/10/21 02:56:13;;;;;;;4.18;2.35;;;9.60;99.90;;;;;;5061043;28;20553;-74
2023/10/21 02:58:39;;;;;;;5.80;2.83;;;9.70;99.90;;;;;;5060516;28;20048;-75
2023/10/21 03:01:13;;;;;;;5.32;2.28;;;9.60;99.90;;;;;;5062967;28;20147;-75
2023/10/21 03:03:38;;;;;;;6.03;2.88;;;9.70;99.90;;;;;;5041074;28;20098;-75
2023/10/21 03:06:04;;;;;;;4.22;1.73;;;9.70;99.90;;;;;;5062132;28;20048;-74
2023/10/21 03:08:29;;;;;;;8.57;2.75;;;9.70;99.90;;;;;;5058596;28;20054;-74
2023/10/21 03:10:55;;;;;;;4.95;2.55;;;9.70;99.90;;;;;;5058608;28;20033;-75
2023/10/21 03:13:21;;;;;;;4.63;2.20;;;9.70;99.90;;;;;;5060479;28;20037;-75
2023/10/21 03:15:46;;;;;;;7.30;2.20;;;9.70;99.90;;;;;;5059400;28;20426;-75
2023/10/21 03:18:12;;;;;;;6.07;2.42;;;9.70;99.90;;;;;;5061409;28;20567;-74
2023/10/21 03:20:38;;;;;;;5.43;3.10;;;9.70;99.90;;;;;;5054279;28;20055;-75
2023/10/21 03:23:04;;;;;;;4.60;2.15;;;9.70;99.90;;;;;;5090745;28;20128;-75
2023/10/21 03:25:30;;;;;;;4.40;1.70;;;9.70;99.90;;;;;;5061566;28;20036;-75
2023/10/21 03:27:56;;;;;;;4.22;2.28;;;9.80;99.90;;;;;;5087883;28;20089;-75
2023/10/21 03:30:22;;;;;;;4.63;1.92;;;9.80;99.90;;;;;;5046594;28;21261;-75
2023/10/21 03:32:47;;;;;;;9.13;2.50;;;9.80;99.90;;;;;;5060490;28;20036;-75
2023/10/21 03:35:13;;;;;;;4.78;2.40;;;9.80;99.90;;;;;;5060023;28;20350;-75
2023/10/21 03:37:38;;;;;;;7.00;2.22;;;9.80;99.90;;;;;;5056974;28;20063;-75
2023/10/21 03:40:05;;;;;;;6.30;2.10;;;9.80;99.90;;;;;;5056984;28;20040;-75
2023/10/21 03:42:31;;;;;;;5.10;2.20;;;9.80;99.90;;;;;;5055978;28;20045;-75
2023/10/21 03:44:57;;;;;;;4.80;1.90;;;9.80;99.90;;;;;;5059141;28;20037;-75
2023/10/21 03:47:23;;;;;;;4.45;1.60;;;9.80;99.90;;;;;;5037899;28;20132;-75
2023/10/21 03:49:48;;;;;;;3.72;1.85;;;9.80;99.90;;;;;;5097668;28;20040;-75
2023/10/21 03:52:14;;;;;;;4.40;2.05;;;9.80;99.90;;;;;;5069067;28;20033;-75
2023/10/21 03:54:39;;;;;;;4.68;2.45;;;9.80;99.90;;;;;;5076930;28;20087;-75
2023/10/21 03:57:05;;;;;;;6.35;2.70;;;9.80;99.90;;;;;;5060452;28;20035;-75
2023/10/21 03:59:31;;;;;;;4.72;1.83;;;9.80;99.90;;;;;;5043731;28;20033;-75
2023/10/21 04:01:57;;;;;;;4.10;1.55;;;9.90;99.90;;;;;;5062540;28;20080;-75
2023/10/21 04:04:23;;;;;;;5.03;1.98;;;9.90;99.90;;;;;;5064768;28;20040;-75
2023/10/21 04:06:49;;;;;;;3.53;1.50;;;9.90;99.90;;;;;;5062195;28;20086;-75
2023/10/21 04:09:14;;;;;;;4.60;1.92;;;9.90;99.90;;;;;;5060859;28;20048;-75
2023/10/21 04:11:41;;;;;;;2.08;1.48;;;9.80;99.90;;;;;;5064997;28;20051;-75
2023/10/21 04:14:10;;;;;;;3.97;2.25;;;9.80;99.90;;;;;;5044085;28;20139;-75
2023/10/21 04:16:36;;;;;;;6.78;2.40;;;9.90;99.90;;;;;;5049037;28;20036;-75
2023/10/21 04:19:02;;;;;;;3.65;1.55;;;9.80;99.90;;;;;;5060686;28;20512;-75
2023/10/21 04:21:27;;;;;;;3.47;1.88;;;9.90;99.90;;;;;;5062794;28;20037;-75
2023/10/21 04:23:53;;;;;;;5.07;2.05;;;9.80;99.90;;;;;;5061955;28;20036;-75
2023/10/21 04:26:19;;;;;;;5.10;1.90;;;9.80;99.90;;;;;;5049101;28;20200;-75
2023/10/21 04:28:44;;;;;;;4.18;2.17;;;9.80;99.90;;;;;;5044183;28;20153;-75
2023/10/21 04:31:10;;;;;;;2.95;1.52;;;9.80;99.90;;;;;;5048270;28;21909;-75
2023/10/21 04:33:35;;;;;;;5.57;2.60;;;9.80;99.90;;;;;;5059699;28;20028;-75
2023/10/21 04:36:01;;;;;;;4.00;1.83;;;9.90;99.90;;;;;;5064394;28;20143;-75
2023/10/21 04:38:27;;;;;;;5.15;2.15;;;9.80;99.90;;;;;;5059729;28;20051;-75
2023/10/21 04:40:54;;;;;;;3.60;1.75;;;9.90;99.90;;;;;;5061053;28;20045;-75
2023/10/21 04:43:20;;;;;;;3.25;1.75;;;9.90;99.90;;;;;;5046603;28;20037;-75
2023/10/21 04:45:45;;;;;;;4.55;1.83;;;9.90;99.90;;;;;;5093816;28;20032;-75
2023/10/21 04:48:11;;;;;;;3.17;1.42;;;9.90;99.90;;;;;;5064903;28;20475;-75
2023/10/21 04:50:36;;;;;;;5.57;2.20;;;9.90;99.90;;;;;;5058347;28;20071;-75
2023/10/21 04:53:02;;;;;;;4.20;1.95;;;9.90;99.90;;;;;;5064298;28;20056;-75
2023/10/21 04:55:28;;;;;;;4.45;1.98;;;9.90;99.90;;;;;;5064057;28;20038;-75
2023/10/21 04:57:53;;;;;;;4.20;2.00;;;9.90;99.90;;;;;;5063102;28;20287;-75
2023/10/21 05:00:19;;;;;;;4.13;1.88;;;9.90;99.90;;;;;;5062852;28;20402;-75
2023/10/21 05:02:45;;;;;;;4.35;1.60;;;9.90;99.90;;;;;;5062285;28;20048;-75
2023/10/21 05:05:12;;;;;;;4.75;2.22;;;9.90;99.90;;;;;;5059103;28;20137;-76
2023/10/21 05:07:38;;;;;;;4.43;2.10;;;9.90;99.90;;;;;;5058077;28;20041;-75
2023/10/21 05:10:04;;;;;;;6.10;2.05;;;9.90;99.90;;;;;;5060355;28;20448;-75
2023/10/21 05:12:30;;;;;;;5.50;2.35;;;10.00;99.90;;;;;;5060089;28;20138;-75
2023/10/21 05:14:55;;;;;;;4.50;2.03;;;10.00;99.90;;;;;;5061445;28;20190;-75
2023/10/21 05:17:21;;;;;;;6.90;3.70;;;10.00;99.90;;;;;;5079383;28;20393;-75
2023/10/21 05:19:46;;;;;;;6.05;3.08;;;10.00;99.90;;;;;;5060575;28;20045;-75
2023/10/21 05:22:13;;;;;;;10.40;4.00;;;10.00;99.90;;;;;;5060810;28;20044;-75
2023/10/21 05:24:38;;;;;;;7.85;2.70;;;10.00;99.90;;;;;;5062427;28;20072;-75
2023/10/21 05:27:04;;;;;;;4.93;1.95;;;10.10;99.90;;;;;;5063511;28;20056;-75
2023/10/21 05:29:29;;;;;;;4.28;2.10;;;10.10;99.90;;;;;;5047364;28;20619;-75
2023/10/21 05:31:55;;;;;;;3.67;1.30;;;10.10;99.90;;;;;;5061880;28;20401;-75
2023/10/21 05:34:21;;;;;;;3.67;1.80;;;10.10;99.90;;;;;;5062746;28;20040;-75
2023/10/21 05:36:47;;;;;;;4.68;1.70;;;10.20;99.90;;;;;;5061780;28;20064;-75
2023/10/21 05:39:12;;;;;;;7.65;1.55;;;10.20;99.90;;;;;;5072756;28;20048;-75
2023/10/21 05:41:42;;;;;;;3.83;1.80;;;10.20;99.90;;;;;;5041173;28;20049;-75
2023/10/21 05:44:11;;;;;;;3.83;1.77;;;10.30;99.90;;;;;;5078404;28;20033;-75
2023/10/21 05:46:36;;;;;;;4.47;1.63;;;10.30;99.90;;;;;;5049247;28;20040;-75
2023/10/21 05:49:02;;;;;;;4.53;1.30;;;10.30;99.90;;;;;;5035995;28;20037;-75
2023/10/21 05:51:29;;;;;;;2.47;1.52;;;10.40;99.90;;;;;;5051542;28;20036;-75
2023/10/21 05:53:56;;;;;;;3.75;1.75;;;10.40;99.90;;;;;;5062022;28;20053;-75
2023/10/21 05:56:21;;;;;;;4.50;1.55;;;10.40;99.90;;;;;;5061295;28;20048;-75
2023/10/21 05:58:47;;;;;;;3.80;1.67;;;10.40;99.90;;;;;;5062356;28;20070;-75
2023/10/21 06:01:13;;;;;;;3.30;1.60;;;10.50;99.90;;;;;;5057154;28;20178;-75
2023/10/21 06:03:39;;;;;;;2.97;1.52;;;10.50;99.90;;;;;;5062559;28;20052;-75
2023/10/21 06:06:05;;;;;;;4.40;1.67;;;10.50;99.90;;;;;;5045623;28;20047;-75
2023/10/21 06:08:31;;;;;;;3.35;1.42;;;10.50;99.90;;;;;;5059570;28;20133;-75
2023/10/21 06:10:58;;;;;;;3.53;1.98;;;10.50;99.90;;;;;;5045220;28;20127;-74
2023/10/21 06:13:24;;;;;;;2.33;1.10;;;10.50;99.90;;;;;;5061788;28;20102;-75
2023/10/21 06:15:51;;;;;;;2.38;1.30;;;10.60;99.90;;;;;;5092048;28;20498;-75
2023/10/21 06:18:17;;;;;;;3.00;1.52;;;10.60;99.90;;;;;;5059537;28;20044;-75
2023/10/21 06:20:49;;;;;;;3.33;1.70;;;10.60;99.90;;;;;;5070954;28;20410;-76
2023/10/21 06:23:15;;;;;;;6.55;1.92;;;10.60;99.90;;;;;;5055597;28;20036;-75
2023/10/21 06:25:41;;;;;;;5.07;1.67;;;10.60;99.90;;;;;;5080775;28;20043;-73
2023/10/21 06:28:07;;;;;;;4.13;2.08;;;10.60;99.90;;;;;;5041349;28;20995;-74
2023/10/21 06:30:35;;;;;;;3.08;1.20;;;10.60;99.90;;;;;;5090976;28;21449;-75
2023/10/21 06:33:02;;;;;;;2.78;1.20;;;10.60;99.90;;;;;;5091291;28;20040;-75
2023/10/21 06:35:28;;;;;;;2.50;1.38;;;10.60;99.90;;;;;;5057463;28;20047;-75
2023/10/21 06:37:54;;;;;;;3.45;1.38;;;10.60;99.90;;;;;;5043803;28;20055;-76
2023/10/21 06:40:20;;;;;;;3.45;1.45;;;10.60;99.90;;;;;;5044449;28;20159;-75
2023/10/21 06:42:46;;;;;;;8.02;1.67;;;10.60;99.90;;;;;;5056592;28;20040;-75
2023/10/21 06:45:11;;;;;;;1.45;0.88;;;10.60;99.90;;;;;;5054952;28;20056;-75
2023/10/21 06:47:37;;;;;;;3.28;1.23;;;10.60;99.90;;;;;;5090117;28;20028;-75
2023/10/21 06:50:04;;;;;;;3.20;1.30;;;10.60;99.90;;;;;;5043913;28;20037;-75
2023/10/21 06:52:31;;;;;;;2.55;1.27;;;10.60;99.90;;;;;;5055467;28;20040;-75
2023/10/21 06:54:57;;;;;;;4.35;1.67;;;10.60;99.90;;;;;;5058230;28;20068;-75
2023/10/21 06:57:23;;;;;;;1.60;0.95;;;10.70;99.90;;;;;;5045144;28;20478;-75
2023/10/21 06:59:50;;;;;;;3.55;1.60;;;10.70;99.90;;;;;;5045050;28;20098;-75
2023/10/21 07:02:17;;;;;;;3.53;1.77;;;10.70;99.90;;;;;;5055625;28;20044;-76
2023/10/21 07:04:43;;;;;;;5.90;2.13;;;10.80;99.90;;;;;;5081530;28;20045;-75
2023/10/21 07:07:10;;;;;;;3.55;1.60;;;10.80;99.90;;;;;;5080563;28;20078;-76
2023/10/21 07:09:37;;;;;;;2.20;1.15;;;10.70;99.90;;;;;;5053704;28;20162;-75
2023/10/21 07:12:04;;;;;;;3.90;1.50;;;10.80;99.90;;;;;;5055160;28;20068;-75
2023/10/21 07:14:29;;;;;;;4.68;1.50;;;10.80;99.90;;;;;;5051113;28;20048;-75
2023/10/21 07:16:56;;;;;;;4.75;1.35;;;10.80;99.90;;;;;;5074574;28;20099;-75
2023/10/21 07:19:22;;;;;;;3.42;1.52;;;10.80;99.90;;;;;;5055998;28;20064;-76
2023/10/21 07:21:48;;;;;;;4.07;1.67;;;10.80;99.90;;;;;;5034282;28;20068;-76
2023/10/21 07:24:14;;;;;;;2.60;1.40;;;10.90;99.90;;;;;;5056721;28;20049;-75
2023/10/21 07:26:40;;;;;;;2.30;1.00;;;10.90;99.90;;;;;;5040992;28;20127;-75
2023/10/21 07:29:07;;;;;;;3.13;1.52;;;10.90;99.90;;;;;;5054354;28;20575;-75
2023/10/21 07:31:33;;;;;;;2.72;1.15;;;10.90;99.90;;;;;;5056708;28;20129;-75
2023/10/21 07:33:59;;;;;;;3.90;1.55;;;11.00;99.90;;;;;;5060928;28;20132;-75
2023/10/21 07:36:25;;;;;;;3.95;1.77;;;11.00;99.90;;;;;;5065510;28;20131;-75
2023/10/21 07:38:52;;;;;;;1.95;0.90;;;11.00;99.90;;;;;;5068488;28;20064;-75
2023/10/21 07:41:18;;;;;;;2.95;1.58;;;11.00;99.90;;;;;;5071183;28;20044;-75
2023/10/21 07:43:44;;;;;;;4.95;1.80;;;11.00;99.90;;;;;;5054288;28;20452;-75
2023/10/21 07:46:10;;;;;;;3.90;1.77;;;11.00;99.90;;;;;;5071553;28;20035;-75
2023/10/21 07:48:36;;;;;;;3.17;1.20;;;11.10;99.90;;;;;;5086084;28;20043;-75
2023/10/21 07:51:01;;;;;;;3.88;1.60;;;11.10;99.90;;;;;;5072650;28;20406;-75
2023/10/21 07:53:27;;;;;;;3.65;1.73;;;11.10;99.90;;;;;;5068406;28;20049;-75
2023/10/21 07:55:53;;;;;;;4.75;1.70;;;11.20;99.90;;;;;;5070908;28;20048;-75
2023/10/21 07:58:19;;;;;;;3.55;1.35;;;11.20;99.90;;;;;;5070487;28;20048;-75
2023/10/21 08:00:44;;;;;;;3.47;1.40;;;11.20;99.90;;;;;;5058282;28;20047;-75
2023/10/21 08:03:10;;;;;;;5.53;1.95;;;11.20;99.90;;;;;;5074395;28;20037;-75
2023/10/21 08:05:36;;;;;;;3.15;1.48;;;11.30;99.90;;;;;;5051583;28;20033;-75
2023/10/21 08:08:03;;;;;;;4.47;1.70;;;11.30;99.90;;;;;;5069574;28;20066;-75
2023/10/21 08:10:29;;;;;;;7.43;2.00;;;11.40;99.90;;;;;;5066016;28;20045;-75
2023/10/21 08:12:55;;;;;;;3.75;1.85;;;11.40;99.90;;;;;;5063489;28;20119;-75
2023/10/21 08:15:20;;;;;;;4.47;1.17;;;11.50;99.90;;;;;;5065884;28;20131;-75
2023/10/21 08:17:46;;;;;;;8.05;1.38;;;11.50;99.90;;;;;;5064716;28;20135;-74
2023/10/21 08:20:12;;;;;;;3.75;1.60;;;11.50;99.90;;;;;;5060256;28;20501;-75
2023/10/21 08:22:37;;;;;;;6.63;1.48;;;11.60;99.90;;;;;;5041923;28;20036;-75
2023/10/21 08:25:03;;;;;;;3.22;1.42;;;11.60;99.90;;;;;;5046415;28;20363;-74
2023/10/21 08:27:29;;;;;;;3.47;1.55;;;11.60;99.90;;;;;;5059820;28;20033;-75
2023/10/21 08:29:54;;;;;;;3.13;1.33;;;11.70;99.90;;;;;;5060790;28;20036;-75
2023/10/21 08:32:20;;;;;;;2.33;1.35;;;11.70;99.90;;;;;;5059221;28;20033;-75
2023/10/21 08:34:46;;;;;;;2.97;1.55;;;11.80;99.90;;;;;;5062669;28;20043;-75
2023/10/21 08:37:12;;;;;;;3.25;1.58;;;11.90;99.90;;;;;;5060872;28;20041;-75
2023/10/21 08:39:37;;;;;;;2.42;1.05;;;11.90;99.90;;;;;;5096525;28;20375;-75
2023/10/21 08:42:05;;;;;;;3.92;0.90;;;12.00;99.90;;;;;;5059981;28;20037;-75
2023/10/21 08:44:32;;;;;;;3.70;1.80;;;12.00;99.90;;;;;;5095782;28;20516;-75
2023/10/21 08:46:58;;;;;;;5.15;1.83;;;12.00;99.90;;;;;;5062038;28;20063;-75
2023/10/21 08:49:24;;;;;;;2.10;1.08;;;12.10;99.90;;;;;;5061314;28;20037;-75
2023/10/21 08:51:52;;;;;;;3.60;1.77;;;12.10;99.90;;;;;;5060362;28;20036;-75
2023/10/21 08:54:19;;;;;;;2.08;1.08;;;12.10;99.90;;;;;;5053225;28;20486;-75
2023/10/21 08:56:45;;;;;;;2.55;1.20;;;12.20;99.90;;;;;;5056062;28;20620;-74
2023/10/21 08:59:12;;;;;;;2.35;1.20;;;12.20;99.90;;;;;;5055006;28;20131;-75
2023/10/21 09:01:38;;;;;;;2.78;1.20;;;12.30;99.90;;;;;;5096540;28;20044;-75
2023/10/21 09:04:04;;;;;;;2.53;1.10;;;12.30;99.90;;;;;;5072222;28;20055;-75
2023/10/21 09:06:30;;;;;;;4.22;1.15;;;12.30;99.90;;;;;;5053119;28;20604;-75
2023/10/21 09:08:55;;;;;;;4.13;0.80;;;12.40;99.90;;;;;;5086537;28;20114;-75
2023/10/21 09:11:26;;;;;;;1.80;1.00;;;12.50;99.90;;;;;;5090151;28;20173;-74
2023/10/21 09:13:54;;;;;;;2.45;0.93;;;12.50;99.90;;;;;;5089819;28;20485;-75
2023/10/21 09:16:23;;;;;;;3.33;1.17;;;12.50;99.90;;;;;;5084875;28;20086;-75
2023/10/21 09:19:06;;;;;;;3.00;1.20;;;12.50;99.90;;;;;;5052226;28;20036;-74
2023/10/21 09:21:41;;;;;;;1.92;0.95;;;12.60;99.90;;;;;;5061173;28;20043;-75
2023/10/21 09:24:12;;;;;;;2.55;0.73;;;12.60;99.90;;;;;;5075855;28;20071;-76
2023/10/21 09:26:47;;;;;;;1.65;0.80;;;12.60;99.90;;;;;;5044548;28;20056;-75
2023/10/21 09:29:18;;;;;;;3.85;1.58;;;12.70;99.90;;;;;;5061501;28;20055;-75
2023/10/21 09:31:52;;;;;;;1.50;0.93;;;12.80;99.90;;;;;;5059229;28;20048;-75
2023/10/21 09:34:30;;;;;;;3.15;1.38;;;12.70;99.90;;;;;;5061026;28;20035;-76
2023/10/21 09:37:02;;;;;;;2.78;1.02;;;12.80;99.90;;;;;;5040375;28;20509;-75
2023/10/21 09:39:32;;;;;;;2.78;1.15;;;12.80;99.90;;;;;;5055420;28;20507;-75
2023/10/21 09:42:02;;;;;;;1.52;0.77;;;12.80;99.90;;;;;;5045095;28;20033;-76
2023/10/21 09:44:29;;;;;;;1.80;0.85;;;12.80;99.90;;;;;;5091856;28;20040;-77
2023/10/21 09:46:56;;;;;;;1.25;0.40;;;12.90;99.90;;;;;;5060453;28;20509;-76
2023/10/21 09:49:27;;;;;;;3.03;1.55;;;12.80;99.90;;;;;;5059232;28;20486;-77
2023/10/21 09:52:06;;;;;;;2.50;1.00;;;12.90;99.90;;;;;;5038146;28;20041;-77
2023/10/21 09:55:07;;;;;;;1.55;0.55;;;12.80;99.90;;;;;;5040843;28;20032;-77
2023/10/21 09:57:40;;;;;;;0.93;0.60;;;12.90;99.90;;;;;;5056774;28;20052;-77
2023/10/21 10:00:08;;;;;;;1.30;0.68;;;12.90;99.90;;;;;;5042812;28;20036;-77
2023/10/21 10:02:38;;;;;;;1.05;0.47;;;12.90;99.90;;;;;;5037803;28;20075;-77
2023/10/21 10:05:08;;;;;;;1.48;0.70;;;12.90;99.90;;;;;;5092771;28;20644;-77
2023/10/21 10:07:39;;;;;;;1.02;0.43;;;12.90;99.90;;;;;;5059177;28;20056;-76
2023/10/21 10:10:07;;;;;;;0.90;0.60;;;12.90;99.90;;;;;;5044148;28;20037;-77
2023/10/21 10:12:46;;;;;;;0.98;0.47;;;12.90;99.90;;;;;;5056862;28;20536;-77
2023/10/21 10:15:31;;;;;;;1.58;0.45;;;12.90;99.90;;;;;;5076283;28;20036;-76
2023/10/21 10:18:00;;;;;;;1.42;0.68;;;12.90;99.90;;;;;;5045611;28;20103;-76
2023/10/21 10:20:27;;;;;;;0.75;0.30;;;13.00;99.90;;;;;;5061106;28;20119;-77
2023/10/21 10:23:07;;;;;;;0.65;0.40;;;13.00;99.90;;;;;;5075028;28;20585;-77
2023/10/21 10:25:38;;;;;;;0.65;0.35;;;13.00;99.90;;;;;;5070014;28;20988;-77
2023/10/21 10:28:04;;;;;;;0.60;0.22;;;12.90;99.90;;;;;;5040874;28;20063;-76
2023/10/21 10:30:31;;;;;;;0.43;0.28;;;13.00;99.90;;;;;;5043964;28;20119;-76
2023/10/21 10:33:06;;;;;;;0.95;0.47;;;13.00;99.90;;;;;;5056363;28;20146;-76
2023/10/21 10:35:34;;;;;;;0.50;0.25;;;12.90;99.90;;;;;;5059643;28;20055;-76
2023/10/21 10:38:01;;;;;;;0.80;0.30;;;13.00;99.90;;;;;;5083611;28;20751;-76
2023/10/21 10:40:40;;;;;;;0.28;0.15;;;13.00;99.90;;;;;;5045886;28;20040;-76
2023/10/21 10:43:12;;;;;;;0.40;0.10;;;13.00;99.90;;;;;;5041817;28;20497;-76
2023/10/21 10:45:39;;;;;;;0.22;0.20;;;13.10;99.90;;;;;;5058171;28;20037;-76
2023/10/21 10:48:07;;;;;;;0.40;0.20;;;13.10;99.90;;;;;;5058166;28;20119;-76
2023/10/21 10:50:39;;;;;;;0.68;0.20;;;13.20;99.90;;;;;;5059427;28;20034;-76
2023/10/21 10:53:22;;;;;;;0.43;0.20;;;13.20;99.90;;;;;;5040874;28;20422;-76
2023/10/21 10:55:49;;;;;;;0.17;0.17;;;13.20;99.90;;;;;;5044439;28;20087;-77
2023/10/21 10:58:18;;;;;;;0.32;0.20;;;13.20;99.90;;;;;;5059282;28;20029;-77
2023/10/21 11:00:45;;;;;;;1.35;0.28;;;13.10;99.90;;;;;;5061168;28;20121;-79
2023/10/21 11:03:21;;;;;;;0.73;0.30;;;13.10;99.90;;;;;;5056750;28;20036;-77
2023/10/21 11:05:48;;;;;;;0.50;0.30;;;13.20;99.90;;;;;;5044660;28;20036;-77
2023/10/21 11:08:15;;;;;;;0.50;0.28;;;13.20;99.90;;;;;;5093806;28;20036;-77
2023/10/21 11:10:41;;;;;;;0.30;0.20;;;13.20;99.90;;;;;;5041862;28;20036;-77
2023/10/21 11:13:07;;;;;;;0.55;0.20;;;13.10;99.90;;;;;;5067244;28;20159;-77
2023/10/21 11:15:40;;;;;;;0.28;0.20;;;13.20;99.90;;;;;;5071589;28;20068;-77
2023/10/21 11:18:06;;;;;;;0.22;0.15;;;13.20;99.90;;;;;;5075897;28;20079;-77
2023/10/21 11:20:32;;;;;;;0.50;0.30;;;13.20;99.90;;;;;;5065826;28;20033;-77
2023/10/21 11:23:08;;;;;;;0.52;0.20;;;13.20;99.90;;;;;;5061220;28;20130;-78
2023/10/21 11:25:35;;;;;;;;;;;13.20;99.90;;;;;;5045801;28;20040;-77
2023/10/21 11:28:01;;;;;;;0.20;0.10;;;13.10;99.90;;;;;;5079812;28;20639;-77
2023/10/21 11:30:27;;;;;;;0.35;0.20;;;13.10;99.90;;;;;;5063087;28;20039;-77
2023/10/21 11:32:54;;;;;;;0.30;0.20;;;13.20;99.90;;;;;;5043381;28;20084;-74
2023/10/21 11:35:20;;;;;;;0.47;0.20;;;13.20;99.90;;;;;;5064416;28;20573;-74
2023/10/21 11:37:47;;;;;;;0.22;0.20;;;13.20;99.90;;;;;;5070525;28;20135;-74
2023/10/21 11:40:15;;;;;;;0.17;0.10;;;13.20;99.90;;;;;;5080247;28;20063;-74
2023/10/21 11:42:43;;;;;;;0.17;0.10;;;13.30;99.90;;;;;;5090619;28;20063;-74
2023/10/21 11:45:12;;;;;;;0.00;0.00;;;13.20;99.90;;;;;;5065279;28;20395;-74
2023/10/21 11:47:38;;;;;;;0.47;0.25;;;13.20;99.90;;;;;;5064833;28;20036;-74
2023/10/21 11:50:09;;;;;;;0.20;0.20;;;13.30;99.90;;;;;;5071381;28;20079;-74
2023/10/21 11:52:34;;;;;;;0.05;0.05;;;13.10;99.90;;;;;;5070035;28;20493;-75
2023/10/21 12:01:44;;;;;;;0.32;0.15;;;13.10;99.90;;;;;;5051059;28;20036;-74
2023/10/21 12:07:06;;;;;;;0.20;0.10;;;13.00;99.90;;;;;;5073499;28;20487;-80
2023/10/21 12:14:57;;;;;;;1.10;0.28;;;13.10;99.90;;;;;;5097968;27;20049;-76
2023/10/21 12:19:53;;;;;;;0.25;0.20;;;13.10;99.90;;;;;;5057435;28;20048;-76
2023/10/21 12:30:42;;;;;;;3.92;0.20;;;13.20;99.90;;;;;;5061655;28;20072;-76
2023/10/21 12:38:24;;;;;;;0.22;0.10;;;13.30;99.90;;;;;;5057189;28;20093;-76
2023/10/21 12:43:38;;;;;;;0.43;0.20;;;13.20;99.90;;;;;;5096811;28;20440;-76
2023/10/21 12:46:19;;;;;;;1.20;0.40;;;13.20;99.90;;;;;;5046685;28;20382;-75
2023/10/21 12:48:47;;;;;;;0.30;0.10;;;13.20;99.90;;;;;;5061274;28;20383;-76
2023/10/21 12:51:15;;;;;;;0.35;0.13;;;13.20;99.90;;;;;;5040494;28;20124;-76
2023/10/21 12:53:41;;;;;;;2.55;0.20;;;13.20;99.90;;;;;;5041120;28;20409;-76
2023/10/21 12:56:07;;;;;;;0.75;0.38;;;13.20;99.90;;;;;;5061361;28;20043;-76
2023/10/21 12:58:33;;;;;;;0.30;0.20;;;13.20;99.90;;;;;;5043502;28;20047;-76
2023/10/21 13:01:00;;;;;;;0.25;0.20;;;13.20;99.90;;;;;;5059953;28;20036;-76
2023/10/21 13:03:26;;;;;;;0.30;0.10;;;13.20;99.90;;;;;;5092203;28;20052;-76
2023/10/21 13:05:52;;;;;;;0.40;0.15;;;13.20;99.90;;;;;;5043773;28;20033;-76
2023/10/21 13:08:18;;;;;;;0.60;0.38;;;13.20;99.90;;;;;;5057267;28;21921;-76
2023/10/21 13:10:44;;;;;;;0.10;0.10;;;13.30;99.90;;;;;;5061393;28;20059;-75
2023/10/21 13:13:12;;;;;;;0.30;0.15;;;13.30;99.90;;;;;;5058414;28;20036;-76
2023/10/21 13:15:38;;;;;;;0.38;0.30;;;13.30;99.90;;;;;;5047154;28;20032;-76
2023/10/21 13:18:04;;;;;;;0.35;0.20;;;13.40;99.90;;;;;;5063241;28;20036;-76
2023/10/21 13:20:30;;;;;;;0.20;0.10;;;13.30;99.90;;;;;;5043867;28;20072;-76
2023/10/21 13:22:56;;;;;;;0.65;0.20;;;13.30;99.90;;;;;;5063015;28;20505;-76